createdAt,value
2023-08-21T00:01:36.098Z,101484.40
2023-08-21T00:04:04.744Z,101490.60
2023-08-21T00:06:33.138Z,101488.80
2023-08-21T00:09:03.266Z,101489.00
2023-08-21T00:11:31.090Z,101492.20
2023-08-21T00:13:58.906Z,101492.80
2023-08-21T00:16:27.850Z,101492.20
2023-08-21T00:18:55.897Z,101495.00
2023-08-21T00:21:23.737Z,101494.60
2023-08-21T00:23:51.489Z,101492.60
2023-08-21T00:26:19.308Z,101485.60
2023-08-21T00:28:47.146Z,101483.40
2023-08-21T00:31:15.032Z,101484.40
2023-08-21T00:33:42.859Z,101479.60
2023-08-21T00:36:10.644Z,101480.60
2023-08-21T00:38:38.516Z,101483.40
2023-08-21T00:41:06.274Z,101484.80
2023-08-21T00:43:34.208Z,101487.60
2023-08-21T00:46:02.688Z,101486.20
2023-08-21T00:48:31.375Z,101482.20
2023-08-21T00:50:59.546Z,101488.40
2023-08-21T00:53:27.384Z,101485.80
2023-08-21T00:55:55.381Z,101484.80
2023-08-21T00:58:23.235Z,101490.60
2023-08-21T01:00:53.907Z,101490.60
2023-08-21T01:03:22.071Z,101489.00
2023-08-21T01:05:50.057Z,101489.20
2023-08-21T01:08:26.012Z,101490.60
2023-08-21T01:11:07.389Z,101486.00
2023-08-21T01:13:53.115Z,101493.00
2023-08-21T01:16:22.386Z,101493.20
2023-08-21T01:18:51.520Z,101486.80
2023-08-21T01:21:19.926Z,101492.80
2023-08-21T01:23:47.933Z,101490.80
2023-08-21T01:26:15.784Z,101493.80
2023-08-21T01:28:43.822Z,101492.00
2023-08-21T01:31:32.373Z,101491.00
2023-08-21T01:34:07.420Z,101489.20
2023-08-21T01:36:36.403Z,101487.20
2023-08-21T01:39:04.754Z,101488.00
2023-08-21T01:41:32.616Z,101483.20
2023-08-21T01:44:00.345Z,101488.40
2023-08-21T01:46:28.308Z,101477.40
2023-08-21T01:48:56.283Z,101481.80
2023-08-21T01:51:24.072Z,101485.60
2023-08-21T01:53:51.995Z,101487.00
2023-08-21T01:56:19.724Z,101485.40
2023-08-21T01:58:47.517Z,101487.00
2023-08-21T02:01:15.540Z,101489.20
2023-08-21T02:03:43.566Z,101491.60
2023-08-21T02:06:11.578Z,101490.80
2023-08-21T02:08:41.130Z,101494.20
2023-08-21T02:11:08.967Z,101494.20
2023-08-21T02:13:36.947Z,101490.60
2023-08-21T02:16:04.943Z,101495.00
2023-08-21T02:18:32.776Z,101500.80
2023-08-21T02:21:03.944Z,101495.80
2023-08-21T02:23:31.774Z,101496.00
2023-08-21T02:25:59.630Z,101503.00
2023-08-21T02:28:27.412Z,101506.80
2023-08-21T02:30:55.271Z,101495.20
2023-08-21T02:33:23.132Z,101501.60
2023-08-21T02:35:51.003Z,101505.40
2023-08-21T02:38:18.793Z,101499.40
2023-08-21T02:40:46.612Z,101499.00
2023-08-21T02:43:14.480Z,101497.40
2023-08-21T02:45:42.242Z,101499.00
2023-08-21T02:48:10.947Z,101503.60
2023-08-21T02:50:38.995Z,101500.60
2023-08-21T02:53:06.784Z,101504.20
2023-08-21T02:55:35.030Z,101504.40
2023-08-21T02:58:02.922Z,101501.00
2023-08-21T03:00:30.792Z,101496.60
2023-08-21T03:02:58.666Z,101503.80
2023-08-21T03:05:27.504Z,101507.20
2023-08-21T03:07:55.301Z,101503.60
2023-08-21T03:10:24.704Z,101497.40
2023-08-21T03:12:52.455Z,101497.40
2023-08-21T03:15:20.938Z,101496.00
2023-08-21T03:17:48.767Z,101503.20
2023-08-21T03:20:18.657Z,101505.80
2023-08-21T03:22:47.485Z,101511.40
2023-08-21T03:25:15.864Z,101510.20
2023-08-21T03:27:45.505Z,101513.60
2023-08-21T03:30:16.022Z,101514.60
2023-08-21T03:32:44.115Z,101516.00
2023-08-21T03:35:12.486Z,101513.20
2023-08-21T03:37:40.292Z,101512.00
2023-08-21T03:40:09.747Z,101515.40
2023-08-21T03:42:37.850Z,101510.20
2023-08-21T03:45:06.904Z,101515.80
2023-08-21T03:47:34.811Z,101518.40
2023-08-21T03:50:06.857Z,101517.00
2023-08-21T03:52:34.727Z,101520.80
2023-08-21T03:55:02.513Z,101520.00
2023-08-21T03:57:30.234Z,101517.20
2023-08-21T03:59:58.019Z,101522.40
2023-08-21T04:02:26.817Z,101521.60
2023-08-21T04:04:54.876Z,101525.00
2023-08-21T04:07:22.628Z,101530.80
2023-08-21T04:09:50.474Z,101528.40
2023-08-21T04:12:18.358Z,101533.40
2023-08-21T04:14:46.111Z,101531.00
2023-08-21T04:17:13.916Z,101528.00
2023-08-21T04:19:42.102Z,101531.00
2023-08-21T04:22:09.927Z,101526.20
2023-08-21T04:24:37.681Z,101530.00
2023-08-21T04:27:05.580Z,101529.60
2023-08-21T04:29:33.489Z,101529.20
2023-08-21T04:32:01.341Z,101529.00
2023-08-21T04:34:29.122Z,101531.40
2023-08-21T04:36:56.849Z,101531.60
2023-08-21T04:39:24.758Z,101533.80
2023-08-21T04:41:52.665Z,101532.00
2023-08-21T04:44:20.586Z,101534.40
2023-08-21T04:46:51.501Z,101532.00
2023-08-21T04:49:19.513Z,101531.80
2023-08-21T04:51:47.272Z,101533.00
2023-08-21T04:54:15.101Z,101530.80
2023-08-21T04:56:42.964Z,101533.40
2023-08-21T04:59:11.988Z,101526.40
2023-08-21T05:01:40.010Z,101530.60
2023-08-21T05:04:08.224Z,101529.00
2023-08-21T05:06:36.333Z,101528.00
2023-08-21T05:09:04.147Z,101527.00
2023-08-21T05:11:32.056Z,101533.60
2023-08-21T05:14:02.543Z,101541.00
2023-08-21T05:16:30.739Z,101537.80
2023-08-21T05:18:58.663Z,101531.40
2023-08-21T05:21:26.405Z,101536.20
2023-08-21T05:23:54.323Z,101536.20
2023-08-21T05:26:22.202Z,101540.60
2023-08-21T05:28:50.156Z,101542.00
2023-08-21T05:31:18.226Z,101540.00
2023-08-21T05:33:52.953Z,101548.40
2023-08-21T05:36:20.853Z,101550.20
2023-08-21T05:38:49.642Z,101548.40
2023-08-21T05:41:17.678Z,101554.20
2023-08-21T05:43:46.812Z,101555.00
2023-08-21T05:46:14.796Z,101557.40
2023-08-21T05:48:42.795Z,101561.60
2023-08-21T05:51:10.595Z,101568.00
2023-08-21T05:53:38.370Z,101568.20
2023-08-21T05:56:06.166Z,101572.20
2023-08-21T05:58:34.087Z,101562.20
2023-08-21T06:01:03.475Z,101558.80
2023-08-21T06:03:33.058Z,101565.40
2023-08-21T06:06:36.425Z,101562.20
2023-08-21T06:09:04.271Z,101566.80
2023-08-21T06:11:32.028Z,101571.40
2023-08-21T06:13:59.891Z,101575.60
2023-08-21T06:16:27.824Z,101574.00
2023-08-21T06:18:55.734Z,101567.80
2023-08-21T06:21:23.569Z,101569.20
2023-08-21T06:23:51.571Z,101574.20
2023-08-21T06:26:19.404Z,101571.20
2023-08-21T06:28:47.189Z,101583.20
2023-08-21T06:31:16.276Z,101583.40
2023-08-21T06:33:44.137Z,101583.80
2023-08-21T06:36:12.542Z,101583.00
2023-08-21T06:38:40.385Z,101584.60
2023-08-21T06:41:12.375Z,101584.00
2023-08-21T06:43:43.755Z,101580.20
2023-08-21T06:46:14.736Z,101575.80
2023-08-21T06:48:43.704Z,101574.00
2023-08-21T06:51:14.745Z,101565.40
2023-08-21T06:53:45.110Z,101565.40
2023-08-21T06:56:12.866Z,101564.60
2023-08-21T06:58:40.640Z,101564.40
2023-08-21T07:01:08.406Z,101567.40
2023-08-21T07:03:36.193Z,101574.40
2023-08-21T07:06:04.101Z,101578.80
2023-08-21T07:08:34.644Z,101575.20
2023-08-21T07:11:05.550Z,101573.80
2023-08-21T07:13:33.426Z,101575.60
2023-08-21T07:16:05.459Z,101577.00
2023-08-21T07:18:35.137Z,101574.60
2023-08-21T07:21:12.391Z,101576.20
2023-08-21T07:23:46.550Z,101574.40
2023-08-21T07:26:14.354Z,101573.80
2023-08-21T07:28:42.167Z,101577.20
2023-08-21T07:31:10.409Z,101583.40
2023-08-21T07:33:38.246Z,101575.80
2023-08-21T07:36:07.189Z,101579.80
2023-08-21T07:38:35.125Z,101577.80
2023-08-21T07:41:10.995Z,101578.60
2023-08-21T07:43:42.713Z,101578.80
2023-08-21T07:46:16.921Z,101578.20
2023-08-21T07:48:46.446Z,101583.00
2023-08-21T07:51:14.342Z,101584.80
2023-08-21T07:53:42.650Z,101578.80
2023-08-21T07:56:10.386Z,101577.80
2023-08-21T07:58:38.291Z,101576.40
2023-08-21T08:01:06.340Z,101576.00
2023-08-21T08:03:34.329Z,101583.00
2023-08-21T08:06:02.257Z,101573.80
2023-08-21T08:08:30.490Z,101573.40
2023-08-21T08:11:04.608Z,101565.40
2023-08-21T08:13:33.190Z,101565.40
2023-08-21T08:16:01.827Z,101558.60
2023-08-21T08:18:29.823Z,101562.00
2023-08-21T08:20:57.763Z,101560.40
2023-08-21T08:23:25.571Z,101557.80
2023-08-21T08:25:54.191Z,101552.80
2023-08-21T08:28:22.139Z,101562.80
2023-08-21T08:30:50.072Z,101563.40
2023-08-21T08:33:18.044Z,101560.20
2023-08-21T08:35:45.842Z,101565.40
2023-08-21T08:38:13.694Z,101568.00
2023-08-21T08:40:47.620Z,101567.20
2023-08-21T08:43:16.011Z,101564.20
2023-08-21T08:45:49.277Z,101566.00
2023-08-21T08:48:19.000Z,101564.40
2023-08-21T08:50:48.717Z,101558.20
2023-08-21T08:53:18.452Z,101555.80
2023-08-21T08:55:46.848Z,101558.80
2023-08-21T08:58:14.705Z,101558.00
2023-08-21T09:00:42.615Z,101555.60
2023-08-21T09:03:11.627Z,101559.00
2023-08-21T09:05:41.909Z,101558.00
2023-08-21T09:08:09.857Z,101560.80
2023-08-21T09:10:40.071Z,101559.80
2023-08-21T09:13:19.304Z,101559.40
2023-08-21T09:15:55.298Z,101563.20
2023-08-21T09:18:23.181Z,101563.80
2023-08-21T09:20:51.139Z,101562.20
2023-08-21T09:23:20.070Z,101556.80
2023-08-21T09:25:49.788Z,101557.80
2023-08-21T09:28:22.590Z,101555.40
2023-08-21T09:30:54.380Z,101551.20
2023-08-21T09:33:24.736Z,101558.20
2023-08-21T09:35:54.465Z,101557.00
2023-08-21T09:38:23.753Z,101563.60
2023-08-21T09:40:56.505Z,101562.80
2023-08-21T09:43:25.832Z,101565.40
2023-08-21T09:45:58.533Z,101555.00
2023-08-21T09:48:33.629Z,101561.80
2023-08-21T09:51:05.157Z,101565.80
2023-08-21T09:53:33.744Z,101561.60
2023-08-21T09:56:04.318Z,101559.00
2023-08-21T09:58:32.582Z,101560.20
2023-08-21T10:01:01.235Z,101560.60
2023-08-21T10:03:30.834Z,101559.40
2023-08-21T10:06:00.060Z,101559.20
2023-08-21T10:08:29.920Z,101553.60
2023-08-21T10:11:02.379Z,101546.60
2023-08-21T10:13:34.605Z,101547.00
2023-08-21T10:16:03.131Z,101549.00
2023-08-21T10:18:34.630Z,101543.00
2023-08-21T10:21:26.249Z,101543.20
2023-08-21T10:23:56.486Z,101534.20
2023-08-21T10:26:33.449Z,101532.60
2023-08-21T10:29:07.787Z,101531.40
2023-08-21T10:31:41.358Z,101539.60
2023-08-21T10:34:15.410Z,101532.80
2023-08-21T10:36:46.296Z,101532.80
2023-08-21T10:39:18.592Z,101533.00
2023-08-21T10:42:14.947Z,101532.60
2023-08-21T10:44:42.906Z,101534.80
2023-08-21T10:47:45.632Z,101537.60
2023-08-21T10:50:13.534Z,101539.80
2023-08-21T10:52:45.972Z,101538.00
2023-08-21T10:55:16.676Z,101535.20
2023-08-21T10:57:44.480Z,101532.40
2023-08-21T11:00:15.733Z,101532.60
2023-08-21T11:02:49.016Z,101528.00
2023-08-21T11:05:17.693Z,101526.00
2023-08-21T11:07:49.381Z,101520.20
2023-08-21T11:10:25.069Z,101516.00
2023-08-21T11:12:56.785Z,101511.00
2023-08-21T11:15:30.397Z,101515.00
2023-08-21T11:18:02.001Z,101521.20
2023-08-21T11:20:35.558Z,101518.20
2023-08-21T11:23:08.337Z,101511.60
2023-08-21T11:25:40.715Z,101509.80
2023-08-21T11:28:09.213Z,101507.60
2023-08-21T11:30:37.779Z,101502.40
2023-08-21T11:33:08.919Z,101503.40
2023-08-21T11:35:38.792Z,101498.00
2023-08-21T11:38:10.200Z,101495.60
2023-08-21T11:40:38.222Z,101492.40
2023-08-21T11:43:10.287Z,101489.80
2023-08-21T11:45:53.237Z,101489.40
2023-08-21T11:48:26.156Z,101488.40
2023-08-21T11:50:54.759Z,101487.20
2023-08-21T11:53:37.411Z,101478.60
2023-08-21T11:56:15.382Z,101475.60
2023-08-21T11:58:50.139Z,101478.00
2023-08-21T12:01:22.329Z,101481.40
2023-08-21T12:03:56.863Z,101470.60
2023-08-21T12:06:27.056Z,101474.20
2023-08-21T12:08:55.313Z,101477.20
2023-08-21T12:11:23.186Z,101468.60
2023-08-21T12:13:53.037Z,101477.60
2023-08-21T12:16:21.078Z,101478.80
2023-08-21T12:18:48.971Z,101479.80
2023-08-21T12:21:16.834Z,101475.20
2023-08-21T12:23:44.533Z,101473.60
2023-08-21T12:26:12.258Z,101468.20
2023-08-21T12:28:39.994Z,101461.00
2023-08-21T12:31:07.826Z,101465.60
2023-08-21T12:33:35.733Z,101459.00
2023-08-21T12:36:04.534Z,101454.60
2023-08-21T12:38:33.608Z,101447.20
2023-08-21T12:41:03.902Z,101444.00
2023-08-21T12:43:32.365Z,101443.20
2023-08-21T12:46:00.328Z,101447.60
2023-08-21T12:48:28.166Z,101448.80
2023-08-21T12:50:56.023Z,101436.80
2023-08-21T12:53:23.821Z,101433.40
2023-08-21T12:55:51.641Z,101429.00
2023-08-21T12:58:20.042Z,101426.00
2023-08-21T13:00:48.021Z,101429.60
2023-08-21T13:03:16.333Z,101426.40
2023-08-21T13:05:44.242Z,101430.20
2023-08-21T13:08:12.002Z,101426.20
2023-08-21T13:10:39.802Z,101426.20
2023-08-21T13:13:07.695Z,101422.80
2023-08-21T13:15:35.561Z,101425.40
2023-08-21T13:18:03.784Z,101424.40
2023-08-21T13:20:31.738Z,101423.60
2023-08-21T13:22:59.528Z,101417.20
2023-08-21T13:25:27.616Z,101415.80
2023-08-21T13:27:56.088Z,101421.40
2023-08-21T13:30:24.296Z,101419.60
2023-08-21T13:32:52.105Z,101416.00
2023-08-21T13:35:21.904Z,101413.60
2023-08-21T13:37:51.114Z,101411.40
2023-08-21T13:40:19.274Z,101416.20
2023-08-21T13:42:49.358Z,101419.20
2023-08-21T13:45:19.764Z,101418.00
2023-08-21T13:47:50.157Z,101413.80
2023-08-21T13:50:20.047Z,101411.00
2023-08-21T13:52:48.914Z,101408.60
2023-08-21T13:55:18.183Z,101410.20
2023-08-21T13:57:47.072Z,101403.40
2023-08-21T14:00:18.554Z,101404.00
2023-08-21T14:02:46.858Z,101405.40
2023-08-21T14:05:15.780Z,101396.40
2023-08-21T14:07:43.601Z,101394.80
2023-08-21T14:10:11.658Z,101398.60
2023-08-21T14:12:42.205Z,101390.20
2023-08-21T14:15:11.809Z,101388.20
2023-08-21T14:17:40.670Z,101385.80
2023-08-21T14:20:09.497Z,101384.40
2023-08-21T14:22:38.365Z,101373.00
2023-08-21T14:25:09.576Z,101377.80
2023-08-21T14:27:37.768Z,101372.40
2023-08-21T14:30:07.526Z,101370.60
2023-08-21T14:32:38.171Z,101373.60
2023-08-21T14:35:10.635Z,101367.00
2023-08-21T14:37:40.228Z,101361.20
2023-08-21T14:40:09.363Z,101360.20
2023-08-21T14:42:39.506Z,101364.00
2023-08-21T14:45:08.507Z,101354.20
2023-08-21T14:47:38.603Z,101344.40
2023-08-21T14:50:07.437Z,101349.60
2023-08-21T14:52:35.296Z,101335.20
2023-08-21T14:55:03.366Z,101331.40
2023-08-21T14:57:31.165Z,101327.60
2023-08-21T14:59:58.919Z,101319.20
2023-08-21T15:02:26.781Z,101317.00
2023-08-21T15:04:54.893Z,101314.60
2023-08-21T15:07:22.722Z,101307.20
2023-08-21T15:09:50.494Z,101310.20
2023-08-21T15:12:18.307Z,101321.20
2023-08-21T15:14:46.802Z,101312.60
2023-08-21T15:17:19.465Z,101302.60
2023-08-21T15:19:50.388Z,101295.40
2023-08-21T15:22:19.003Z,101293.80
2023-08-21T15:24:46.861Z,101292.80
2023-08-21T15:27:15.196Z,101301.20
2023-08-21T15:29:42.934Z,101307.60
2023-08-21T15:32:10.869Z,101307.20
2023-08-21T15:34:38.698Z,101302.20
2023-08-21T15:37:06.500Z,101300.00
2023-08-21T15:39:34.235Z,101301.40
2023-08-21T15:42:02.049Z,101299.80
2023-08-21T15:44:29.795Z,101297.00
2023-08-21T15:47:13.316Z,101287.00
2023-08-21T15:49:45.260Z,101289.20
2023-08-21T15:52:13.083Z,101292.60
2023-08-21T15:54:41.604Z,101293.80
2023-08-21T15:57:09.575Z,101297.20
2023-08-21T15:59:39.631Z,101301.40
2023-08-21T16:02:07.396Z,101303.20
2023-08-21T16:04:35.202Z,101296.40
2023-08-21T16:07:03.097Z,101289.80
2023-08-21T16:09:31.160Z,101284.20
2023-08-21T16:11:58.897Z,101278.60
2023-08-21T16:14:26.664Z,101276.20
2023-08-21T16:16:55.900Z,101274.20
2023-08-21T16:19:26.584Z,101274.40
2023-08-21T16:21:54.367Z,101269.80
2023-08-21T16:24:22.220Z,101274.60
2023-08-21T16:26:50.535Z,101272.80
2023-08-21T16:29:19.566Z,101260.40
2023-08-21T16:31:48.693Z,101256.60
2023-08-21T16:34:16.888Z,101255.20
2023-08-21T16:36:44.634Z,101256.00
2023-08-21T16:39:12.472Z,101257.20
2023-08-21T16:41:40.417Z,101259.80
2023-08-21T16:44:08.575Z,101271.40
2023-08-21T16:46:37.003Z,101259.40
2023-08-21T16:49:05.628Z,101261.20
2023-08-21T16:51:33.448Z,101263.80
2023-08-21T16:54:01.238Z,101262.00
2023-08-21T16:56:28.996Z,101268.00
2023-08-21T16:58:56.774Z,101268.00
2023-08-21T17:01:24.647Z,101263.80
2023-08-21T17:03:52.652Z,101263.40
2023-08-21T17:06:20.565Z,101261.80
2023-08-21T17:08:48.295Z,101253.00
2023-08-21T17:11:16.068Z,101260.00
2023-08-21T17:13:45.835Z,101258.00
2023-08-21T17:16:14.445Z,101267.20
2023-08-21T17:18:42.377Z,101264.60
2023-08-21T17:21:10.472Z,101266.60
2023-08-21T17:23:38.181Z,101265.40
2023-08-21T17:26:06.115Z,101255.20
2023-08-21T17:28:33.902Z,101264.80
2023-08-21T17:31:01.664Z,101264.80
2023-08-21T17:33:29.665Z,101260.60
2023-08-21T17:35:57.538Z,101255.60
2023-08-21T17:38:25.308Z,101259.40
2023-08-21T17:40:53.048Z,101248.20
2023-08-21T17:43:20.801Z,101248.20
2023-08-21T17:45:48.771Z,101243.60
2023-08-21T17:48:16.693Z,101235.00
2023-08-21T17:50:45.300Z,101236.80
2023-08-21T17:53:13.047Z,101242.80
2023-08-21T17:55:40.933Z,101252.00
2023-08-21T17:58:08.696Z,101248.80
2023-08-21T18:00:36.849Z,101244.20
2023-08-21T18:03:05.488Z,101242.60
2023-08-21T18:05:33.386Z,101239.20
2023-08-21T18:08:01.374Z,101234.60
2023-08-21T18:10:29.355Z,101234.80
2023-08-21T18:12:57.136Z,101234.60
2023-08-21T18:15:24.973Z,101239.80
2023-08-21T18:17:53.180Z,101241.60
2023-08-21T18:21:02.893Z,101237.00
2023-08-21T18:23:32.146Z,101241.40
2023-08-21T18:26:00.277Z,101240.00
2023-08-21T18:28:28.162Z,101240.00
2023-08-21T18:31:01.933Z,101237.20
2023-08-21T18:33:30.155Z,101237.00
2023-08-21T18:36:00.249Z,101234.00
2023-08-21T18:38:28.948Z,101232.00
2023-08-21T18:40:58.690Z,101228.40
2023-08-21T18:43:26.554Z,101229.80
2023-08-21T18:45:57.364Z,101237.20
2023-08-21T18:48:25.393Z,101242.80
2023-08-21T18:50:54.596Z,101244.00
2023-08-21T18:53:23.517Z,101237.60
2023-08-21T18:55:51.316Z,101239.80
2023-08-21T18:58:19.136Z,101239.80
2023-08-21T19:00:47.123Z,101246.40
2023-08-21T19:03:15.603Z,101249.20
2023-08-21T19:05:43.528Z,101250.60
2023-08-21T19:08:11.371Z,101252.20
2023-08-21T19:10:39.181Z,101247.80
2023-08-21T19:13:08.336Z,101249.20
2023-08-21T19:15:36.519Z,101249.40
2023-08-21T19:18:05.371Z,101248.40
2023-08-21T19:20:33.469Z,101254.00
2023-08-21T19:23:01.686Z,101255.40
2023-08-21T19:25:29.991Z,101265.60
2023-08-21T19:27:59.399Z,101267.80
2023-08-21T19:30:27.171Z,101268.20
2023-08-21T19:32:56.426Z,101276.60
2023-08-21T19:35:24.611Z,101274.80
2023-08-21T19:37:52.731Z,101274.80
2023-08-21T19:40:21.338Z,101278.60
2023-08-21T19:42:49.099Z,101272.20
2023-08-21T19:45:20.501Z,101269.80
2023-08-21T19:47:48.503Z,101274.40
2023-08-21T19:50:16.798Z,101268.20
2023-08-21T19:52:45.867Z,101275.40
2023-08-21T19:55:14.596Z,101276.20
2023-08-21T19:57:42.753Z,101278.40
2023-08-21T20:00:11.670Z,101293.80
2023-08-21T20:02:40.851Z,101291.00
2023-08-21T20:05:09.988Z,101288.80
2023-08-21T20:07:38.383Z,101295.00
2023-08-21T20:10:07.359Z,101305.60
2023-08-21T20:12:36.073Z,101299.00
2023-08-21T20:15:06.181Z,101301.60
2023-08-21T20:17:34.258Z,101291.60
2023-08-21T20:20:02.077Z,101293.20
2023-08-21T20:22:29.890Z,101286.80
2023-08-21T20:24:58.206Z,101288.20
2023-08-21T20:27:26.155Z,101288.20
2023-08-21T20:29:53.956Z,101281.20
2023-08-21T20:32:21.903Z,101275.40
2023-08-21T20:34:50.868Z,101274.80
2023-08-21T20:37:18.810Z,101267.40
2023-08-21T20:39:46.865Z,101268.40
2023-08-21T20:42:14.758Z,101271.20
2023-08-21T20:44:42.954Z,101275.60
2023-08-21T20:47:10.755Z,101276.60
2023-08-21T20:49:39.680Z,101278.20
2023-08-21T20:52:07.702Z,101267.40
2023-08-21T20:54:35.488Z,101263.20
2023-08-21T20:57:03.426Z,101265.40
2023-08-21T20:59:31.254Z,101258.80
2023-08-21T21:01:59.024Z,101266.60
2023-08-21T21:04:26.915Z,101264.00
2023-08-21T21:06:54.759Z,101261.80
2023-08-21T21:09:22.693Z,101257.80
2023-08-21T21:11:50.484Z,101257.60
2023-08-21T21:14:18.523Z,101256.00
2023-08-21T21:16:46.510Z,101261.20
2023-08-21T21:19:14.494Z,101261.20
2023-08-21T21:21:42.376Z,101271.40
2023-08-21T21:24:10.264Z,101277.80
2023-08-21T21:26:40.725Z,101271.60
2023-08-21T21:29:09.852Z,101271.60
2023-08-21T21:31:37.722Z,101263.80
2023-08-21T21:34:05.487Z,101263.80
2023-08-21T21:36:33.247Z,101263.80
2023-08-21T21:39:01.062Z,101264.20
2023-08-21T21:41:28.896Z,101262.40
2023-08-21T21:43:56.775Z,101268.40
2023-08-21T21:46:27.098Z,101266.00
2023-08-21T21:48:55.253Z,101262.60
2023-08-21T21:51:23.321Z,101257.40
2023-08-21T21:53:51.763Z,101254.40
2023-08-21T21:56:19.816Z,101260.00
2023-08-21T21:58:47.920Z,101258.00
2023-08-21T22:01:18.519Z,101249.60
2023-08-21T22:03:46.574Z,101248.20
2023-08-21T22:06:14.703Z,101252.20
2023-08-21T22:08:43.418Z,101253.80
2023-08-21T22:11:11.470Z,101260.20
2023-08-21T22:13:40.145Z,101265.20
2023-08-21T22:16:08.549Z,101265.40
2023-08-21T22:18:38.069Z,101265.80
2023-08-21T22:21:08.561Z,101261.20
2023-08-21T22:23:37.240Z,101263.20
2023-08-21T22:26:05.127Z,101265.40
2023-08-21T22:28:32.989Z,101264.00
2023-08-21T22:31:00.796Z,101254.20
2023-08-21T22:33:28.694Z,101250.80
2023-08-21T22:35:56.629Z,101246.20
2023-08-21T22:38:24.503Z,101247.80
2023-08-21T22:40:52.265Z,101243.40
2023-08-21T22:43:20.118Z,101245.40
2023-08-21T22:45:47.983Z,101247.00
2023-08-21T22:48:15.946Z,101244.40
2023-08-21T22:50:43.853Z,101249.60
2023-08-21T22:53:11.572Z,101243.40
2023-08-21T22:55:39.580Z,101235.40
2023-08-21T22:58:07.809Z,101238.40
2023-08-21T23:00:35.650Z,101234.20
2023-08-21T23:03:04.052Z,101232.20
2023-08-21T23:05:31.942Z,101229.00
2023-08-21T23:07:59.835Z,101232.60
2023-08-21T23:10:27.761Z,101239.00
2023-08-21T23:12:55.582Z,101243.00
2023-08-21T23:15:23.530Z,101231.60
2023-08-21T23:17:51.354Z,101232.20
2023-08-21T23:20:19.362Z,101232.80
2023-08-21T23:22:47.253Z,101228.60
2023-08-21T23:25:15.556Z,101223.80
2023-08-21T23:27:43.378Z,101228.00
2023-08-21T23:30:12.225Z,101231.40
2023-08-21T23:32:40.174Z,101232.60
2023-08-21T23:35:08.631Z,101233.80
2023-08-21T23:37:37.104Z,101238.00
2023-08-21T23:40:10.353Z,101235.00
2023-08-21T23:42:38.247Z,101227.40
2023-08-21T23:45:06.992Z,101231.80
2023-08-21T23:47:34.783Z,101230.20
2023-08-21T23:50:06.046Z,101231.00
2023-08-21T23:52:33.896Z,101223.80
2023-08-21T23:55:03.228Z,101223.60
2023-08-21T23:57:31.382Z,101228.00
2023-08-21T23:59:59.360Z,101229.00
